Centre Hospitalie Heliport

FR-0136 · Calvados, Normandia, Francia

Storia di METAR FR-0136 · Centre Hospitalie Heliport

Di seguito sono riportati i METAR degli ultimi giorni. Seleziona un anno per sfogliare i METAR più vecchi, dall'anno 2007 in poi.

17 luglio 2024

Tempo Codice Tempo meteorologico Temp. Vista Base nuvolosa Vento METAR/SPECI
11:00
V
20 °C 10 km+ 3.500 ft 220° 220° 4 kt METAR LFRK 170900Z AUTO 22004KT 170V250 9999 SCT027 BKN035 20/13 Q1022 TEMPO BKN014
10:30
V
19 °C 10 km+ - 280° 280° 5 kt METAR LFRK 170830Z AUTO 28005KT 250V310 9999 FEW019 19/14 Q1022 TEMPO BKN014
10:00
V
18 °C 10 km+ - 260° 260° 5 kt METAR LFRK 170800Z AUTO 26005KT 230V310 9999 FEW014 18/15 Q1022 NOSIG
09:30
M
17 °C 10 km+ 1.100 ft 230° 230° 6 kt METAR LFRK 170730Z AUTO 23006KT 9999 BKN011 17/15 Q1022 BECMG NSC
09:00
I
17 °C 10 km+ 800 ft 250° 250° 5 kt METAR LFRK 170700Z AUTO 25005KT 9999 BKN008 17/15 Q1021 BECMG NSC
08:30
V
16 °C 9 km - 250° 250° 7 kt METAR LFRK 170630Z AUTO 25007KT 9000 FEW007 16/15 Q1021 TEMPO BKN005
08:00
V
15 °C 10 km+ - 240° 240° 5 kt METAR LFRK 170600Z AUTO 24005KT CAVOK 15/14 Q1021 TEMPO 3000 BR BKN005
07:30
V
14 °C 10 km+ - 240° 240° 4 kt METAR LFRK 170530Z AUTO 24004KT CAVOK 14/13 Q1021 TEMPO 3000 BR BKN005
07:00
M
12 °C 6 km - 200° 200° 3 kt METAR LFRK 170500Z AUTO 20003KT 6000 R31/1100U NSC 12/12 Q1020
06:30
M
12 °C 7 km - 210° 210° 2 kt METAR LFRK 170430Z AUTO 21002KT 7000 R31/0900U NSC 12/12 Q1020
06:00
V
12 °C 8 km - 230° 230° 4 kt METAR LFRK 170400Z AUTO 23004KT 8000 NSC 12/12 Q1020
05:30
V
13 °C 9 km - 240° 240° 7 kt METAR LFRK 170330Z AUTO 24007KT 9000 NSC 13/12 Q1020
05:00
V
13 °C 10 km+ - 250° 250° 7 kt METAR LFRK 170300Z AUTO 25007KT CAVOK 13/12 Q1020
04:30
V
13 °C 10 km+ - 250° 250° 8 kt METAR LFRK 170230Z AUTO 25008KT CAVOK 13/13 Q1020
04:00
V
13 °C 10 km+ - 240° 240° 6 kt METAR LFRK 170200Z AUTO 24006KT CAVOK 13/13 Q1020
03:30
V
13 °C 10 km+ - 240° 240° 7 kt METAR LFRK 170130Z AUTO 24007KT CAVOK 13/13 Q1020
03:00
V
13 °C 10 km+ - 240° 240° 7 kt METAR LFRK 170100Z AUTO 24007KT CAVOK 13/12 Q1020
02:30
V
13 °C 10 km+ - 260° 260° 4 kt METAR LFRK 170030Z AUTO 26004KT CAVOK 13/12 Q1019
02:00
V
14 °C 10 km+ - 250° 250° 6 kt METAR LFRK 170000Z AUTO 25006KT CAVOK 14/13 Q1019
01:30
V
14 °C 10 km+ - 240° 240° 8 kt METAR LFRK 162330Z AUTO 24008KT CAVOK 14/13 Q1019
01:00
V
13 °C 10 km+ - 230° 230° 7 kt METAR LFRK 162300Z AUTO 23007KT CAVOK 13/12 Q1019
00:30
V
13 °C 10 km+ - 230° 230° 5 kt METAR LFRK 162230Z AUTO 23005KT CAVOK 13/11 Q1019
00:00
V
14 °C 10 km+ - 250° 250° 5 kt METAR LFRK 162200Z AUTO 25005KT CAVOK 14/12 Q1019

16 luglio 2024

Tempo Codice Tempo meteorologico Temp. Vista Base nuvolosa Vento METAR/SPECI
23:30
V
14 °C 10 km+ - 250° 250° 5 kt METAR LFRK 162130Z AUTO 25005KT CAVOK 14/12 Q1019
23:00
V
15 °C 10 km+ - 250° 250° 4 kt METAR LFRK 162100Z AUTO 25004KT CAVOK 15/12 Q1018
22:30
V
16 °C 10 km+ - 240° 240° 4 kt METAR LFRK 162030Z AUTO 24004KT CAVOK 16/13 Q1018
22:00
V
17 °C 10 km+ - 260° 260° 7 kt METAR LFRK 162000Z AUTO 26007KT CAVOK 17/13 Q1018 NOSIG
21:30
V
18 °C 10 km+ - 270° 270° 6 kt METAR LFRK 161930Z AUTO 27006KT CAVOK 18/13 Q1018 NOSIG
21:00
V
18 °C 10 km+ - 270° 270° 9 kt METAR LFRK 161900Z AUTO 27009KT CAVOK 18/13 Q1017 NOSIG
20:30
V
19 °C 10 km+ - 270° 270° 9 kt METAR LFRK 161830Z AUTO 27009KT CAVOK 19/13 Q1017 NOSIG
20:00
V
19 °C 10 km+ 7.800 ft 260° 260° 12 kt METAR LFRK 161800Z AUTO 26012KT 9999 FEW036 BKN078 19/12 Q1017 NOSIG
19:30
V
20 °C 10 km+ 7.800 ft 270° 270° 14 kt METAR LFRK 161730Z AUTO 27014KT 9999 SCT038 BKN078 20/12 Q1017 NOSIG
19:00
V
21 °C 10 km+ - 270° 270° 11 kt METAR LFRK 161700Z AUTO 27011KT 9999 FEW038 SCT080 21/12 Q1017 NOSIG
18:30
V
21 °C 10 km+ 4.400 ft 280° 280° 12 kt METAR LFRK 161630Z AUTO 28012KT 9999 SCT038 BKN044 21/13 Q1016 NOSIG
18:00
V
21 °C 10 km+ 4.400 ft 270° 270° 14 kt METAR LFRK 161600Z AUTO 27014KT 9999 FEW036 BKN044 BKN050 21/12 Q1016 NOSIG
17:30
V
22 °C 10 km+ 3.900 ft 280° 280° 14 kt METAR LFRK 161530Z AUTO 28014KT 250V310 9999 BKN039 BKN047 22/13 Q1016 NOSIG
17:00
V
21 °C 10 km+ 3.700 ft 260° 260° 18 kt METAR LFRK 161500Z AUTO 26018KT 9999 BKN037 BKN047 21/13 Q1016 TEMPO 25015G25KT
16:30
V
21 °C 10 km+ 5.600 ft 270° 270° 16 kt METAR LFRK 161430Z AUTO 27016KT 240V300 9999 FEW033 SCT046 BKN056 21/13 Q1015 TEMPO 25015G25KT
16:00
V
21 °C 10 km+ 5.600 ft 260° 260° 15 kt METAR LFRK 161400Z AUTO 26015KT 230V290 9999 SCT034 SCT046 BKN056 21/13 Q1015 TEMPO 25018G30KT
15:30
V
19 °C 10 km+ 3.400 ft 270° 270° 18 kt METAR LFRK 161330Z AUTO 27018KT 9999 BKN034 BKN043 BKN050 19/13 Q1015 TEMPO 25018G30KT
15:00
V
21 °C 10 km+ 3.200 ft 250° 250° 20 kt METAR LFRK 161300Z AUTO 25020KT 220V280 9999 BKN032 BKN043 BKN052 21/13 Q1015 TEMPO 25018G30KT
14:30
V
20 °C 10 km+ 3.700 ft 270° 270° 15 kt METAR LFRK 161230Z AUTO 27015KT 9999 SCT028 BKN037 BKN048 20/14 Q1015 TEMPO 25018G30KT
14:00
V
19 °C 10 km+ 5.400 ft 250° 250° 17 kt METAR LFRK 161200Z AUTO 25017KT 9999 FEW036 BKN054 19/14 Q1014 TEMPO 25018G30KT 4000 SHRA BKN025TCU
13:30
V
18 °C 10 km+ 4.900 ft 270° 270° 16 kt METAR LFRK 161130Z AUTO 27016KT 9999 FEW026 SCT033 OVC049 18/14 Q1014 TEMPO 25018G30KT 4000 SHRA BKN025TCU
13:00
V
19 °C 10 km+ 3.300 ft 260° 260° 14 kt METAR LFRK 161100Z AUTO 26014KT 9999 FEW028/// BKN033/// BKN042/// ///TCU 19/15 Q1014 TEMPO 25015G25KT 4000 SHRA
12:30
M
18 °C 10 km+ 2.700 ft 250° 250° 19 kt METAR LFRK 161030Z AUTO 25019KT 9999 BKN027/// BKN043/// BKN049/// ///TCU 18/13 Q1013 TEMPO 25015G25KT 4000 SHRA
12:00
M
19 °C 10 km+ 2.500 ft 240° 240° 16 kt METAR LFRK 161000Z AUTO 24016KT 9999 BKN025/// BKN031/// BKN043/// ///TCU 19/13 Q1013 TEMPO 25015G25KT 4000 SHRA
11:30
M
19 °C 10 km+ 2.100 ft 240° 240° 16 kt METAR LFRK 160930Z AUTO 24016KT 9999 BKN021/// BKN042/// OVC049/// //////TCU 19/14 Q1013 TEMPO 25015G25KT 4000 SHRA
11:00
M
19 °C 10 km+ 2.200 ft 230° 230° 18 kt METAR LFRK 160900Z AUTO 23018KT 9999 BKN022 BKN029 OVC048 19/14 Q1013 TEMPO 25015G25KT 4000 SHRA BKN025TCU
10:30
M
18 °C 10 km+ 2.000 ft 230° 230° 18 kt METAR LFRK 160830Z AUTO 23018KT 9999 BKN020 BKN028 BKN043 18/14 Q1012 TEMPO 25015G25KT 4000 SHRA BKN025TCU
10:00
M
17 °C 10 km+ 1.600 ft 240° 240° 17 kt METAR LFRK 160800Z AUTO 24017KT 9999 BKN016 OVC039 17/14 Q1012 TEMPO 25015G25KT 4000 SHRA BKN012 BKN020TCU
09:30
M
17 °C 10 km+ 1.600 ft 240° 240° 13 kt METAR LFRK 160730Z AUTO 24013KT 9999 BKN016 BKN024 BKN190 17/14 Q1012 TEMPO 25015G25KT 4000 SHRA BKN012 BKN020TCU
09:00
V
17 °C 10 km+ - 250° 250° 15 kt METAR LFRK 160700Z AUTO 25015KT 9999 ////// 17/14 Q1012
08:30
V
16 °C 10 km+ - 240° 240° 11 kt METAR LFRK 160630Z AUTO 24011KT 9999 ////// 16/14 Q1011
08:00
V
16 °C 10 km+ - 230° 230° 12 kt METAR LFRK 160600Z AUTO 23012KT 9999 ////// 16/14 Q1011
07:30
V
15 °C 10 km+ - 210° 210° 8 kt METAR LFRK 160530Z AUTO 21008KT 9999 ////// 15/14 Q1011
07:00
V
14 °C 10 km+ - 210° 210° 7 kt METAR LFRK 160500Z AUTO 21007KT 9999 ////// 14/13 Q1010
06:30
V
14 °C 10 km+ - 230° 230° 10 kt METAR LFRK 160430Z AUTO 23010KT 9999 ////// 14/13 Q1010
06:00
V
15 °C 10 km+ - 210° 210° 10 kt METAR LFRK 160400Z AUTO 21010KT 9999 ////// 15/14 Q1010
05:30
V
15 °C 10 km+ - 220° 220° 10 kt METAR LFRK 160330Z AUTO 22010KT 9999 -RADZ ////// 15/14 Q1010
05:00
V
15 °C 10 km+ - 220° 220° 9 kt METAR LFRK 160300Z AUTO 22009KT 9999 ////// 15/13 Q1009
04:30
V
15 °C 10 km+ - 220° 220° 11 kt METAR LFRK 160230Z AUTO 22011KT 9999 ////// 15/13 Q1009
04:00
V
15 °C 10 km+ - 220° 220° 11 kt METAR LFRK 160200Z AUTO 22011KT 9999 ////// 15/13 Q1009
03:30
V
15 °C 10 km+ - 220° 220° 11 kt METAR LFRK 160130Z AUTO 22011KT 9999 ////// 15/13 Q1009
03:00
V
15 °C 10 km+ - 220° 220° 10 kt METAR LFRK 160100Z AUTO 22010KT 9999 ////// 15/13 Q1009
02:30
V
15 °C 10 km+ - 210° 210° 10 kt METAR LFRK 160030Z AUTO 21010KT 9999 ////// 15/13 Q1009
02:00
V
14 °C 10 km+ - 200° 200° 9 kt METAR LFRK 160000Z AUTO 20009KT 9999 ////// 14/13 Q1009
01:30
V
13 °C 10 km+ - 180° 180° 6 kt METAR LFRK 152330Z AUTO 18006KT 9999 ////// 13/12 Q1009
01:00
V
13 °C 10 km+ - 180° 180° 4 kt METAR LFRK 152300Z AUTO 18004KT 9999 ////// 13/12 Q1009
00:30
V
14 °C 10 km+ - 190° 190° 3 kt METAR LFRK 152230Z AUTO 19003KT 9999 ////// 14/13 Q1010
00:00
V
14 °C 10 km+ - 180° 180° 5 kt METAR LFRK 152200Z AUTO 18005KT 9999 ////// 14/13 Q1010

15 luglio 2024

Tempo Codice Tempo meteorologico Temp. Vista Base nuvolosa Vento METAR/SPECI
23:30
V
14 °C 10 km+ - 180° 180° 5 kt METAR LFRK 152130Z AUTO 18005KT 9999 ////// 14/13 Q1009
23:00
V
15 °C 10 km+ - 240° 240° 7 kt METAR LFRK 152100Z AUTO 24007KT 9999 ////// 15/14 Q1009
22:30
V
16 °C 10 km+ - 230° 230° 11 kt METAR LFRK 152030Z AUTO 23011KT 9999 ////// 16/14 Q1009
22:00
V
16 °C 10 km+ - 230° 230° 10 kt METAR LFRK 152000Z AUTO 23010KT 9999 ////// 16/14 Q1009
21:30
V
16 °C 10 km+ - 240° 240° 11 kt METAR LFRK 151930Z AUTO 24011KT 9999 -RA ////// 16/15 Q1008
21:00
V
17 °C 10 km+ - 250° 250° 14 kt METAR LFRK 151900Z AUTO 25014KT 9999 ////// 17/14 Q1008
20:30
V
18 °C 10 km+ - 250° 250° 19 kt METAR LFRK 151830Z AUTO 25019KT 9999 ////// 18/14 Q1007
20:00
V
19 °C 10 km+ 5.400 ft 250° 250° 20 kt METAR LFRK 151800Z AUTO 25020KT 9999 SCT044/// BKN054/// BKN070/// ///TCU 19/14 Q1006 TEMPO 3000 SHRA BKN020CB BECMG 22010KT
19:30
V
23 °C 10 km+ - 220° 220° 20 kt METAR LFRK 151730Z AUTO 22020KT 9999 FEW036/// SCT043/// ///CB 23/15 Q1005 TEMPO 3000 SHRA BECMG 22010KT
19:00
V
23 °C 10 km+ 4.100 ft 200° 200° 13 kt METAR LFRK 151700Z AUTO 20013KT 9999 FEW035/// BKN041/// BKN052/// ///CB 23/16 Q1005 TEMPO 22015G25KT 3000 SHRA
18:30
V
23 °C 10 km+ 3.100 ft 190° 190° 11 kt METAR LFRK 151630Z AUTO 19011KT 170V230 9999 BKN031 BKN040 23/16 Q1005 TEMPO 22015G25KT 3000 SHRA BKN020CB
18:00
V
22 °C 10 km+ 3.400 ft 190° 190° 12 kt METAR LFRK 151600Z AUTO 19012KT 9999 FEW023 SCT028 BKN034 22/17 Q1006 TEMPO 3000 SHRA BKN020CB BECMG 22015G25KT
17:30
V
21 °C 10 km+ 3.100 ft 170° 170° 12 kt METAR LFRK 151530Z AUTO 17012KT 9999 SCT022 BKN031 OVC044 21/17 Q1006 TEMPO 3000 SHRA BKN020CB BECMG 22015G25KT
17:00
V
20 °C 10 km+ 4.300 ft 170° 170° 8 kt METAR LFRK 151500Z AUTO 17008KT 9999 OVC043 20/17 Q1006 TEMPO 3000 SHRA BKN020CB BECMG 22015G25KT
16:30
V
20 °C 10 km+ 4.300 ft 150° 150° 7 kt METAR LFRK 151430Z AUTO 15007KT 110V180 9999 BKN043 20/17 Q1006 TEMPO 3000 SHRA BKN020CB BECMG 22015G25KT
16:00
V
20 °C 10 km+ 4.500 ft 170° 170° 10 kt METAR LFRK 151400Z AUTO 17010KT 9999 FEW016 BKN045 BKN054 20/16 Q1006 TEMPO 3000 SHRA BKN020CB BECMG 22015G30KT
15:30
V
20 °C 10 km+ - 170° 170° 12 kt METAR LFRK 151330Z AUTO 17012KT 9999 ///CB 20/16 Q1007 TEMPO 3000 SHRA BECMG 22015G30KT
15:00
V
21 °C 10 km+ 7.400 ft 170° 170° 12 kt METAR LFRK 151300Z AUTO 17012KT 140V200 9999 SCT013/// SCT044/// BKN074/// ///TCU 21/18 Q1007 TEMPO 3000 SHRA BKN020CB BECMG 22015G30KT
14:30
I
20 °C 10 km+ 800 ft 150° 150° 10 kt METAR LFRK 151230Z AUTO 15010KT 9999 BKN008 BKN035 BKN054 20/18 Q1007 TEMPO 3000 SHRA BKN020CB BECMG 22015G30KT
14:00
V
18 °C 10 km+ 8.600 ft 140° 140° 8 kt METAR LFRK 151200Z AUTO 14008KT 100V180 9999 FEW004/// SCT027/// BKN086/// ///TCU 18/18 Q1007 TEMPO 3000 SHRA BKN020CB
13:30
V
17 °C 10 km+ 10.000 ft 140° 140° 12 kt METAR LFRK 151130Z AUTO 14012KT 9999 -RA FEW030/// OVC100/// ///CB 17/16 Q1007 TEMPO 3000 SHRA
13:00
V
18 °C 10 km+ 9.400 ft 140° 140° 11 kt METAR LFRK 151100Z AUTO 14011KT 9999 -RADZ FEW046/// BKN094/// BKN110/// ///TCU 18/16 Q1007 TEMPO 2000 TSRA BKN060CB BECMG 20012KT
12:30
V
18 °C 10 km+ 9.600 ft 130° 130° 9 kt METAR LFRK 151030Z AUTO 13009KT 9999 FEW024/// SCT068/// BKN096/// ///TCU 18/17 Q1007 TEMPO 2000 TSRA BKN060CB BECMG 20012KT
12:00
V
17 °C 10 km+ 10.000 ft 100° 100° 7 kt METAR LFRK 151000Z AUTO 10007KT 9999 FEW034/// SCT084/// OVC100/// //////CB 17/15 Q1007 TEMPO 2000 TSRA
11:30
V
17 °C 8 km - 130° 130° 8 kt METAR LFRK 150930Z AUTO 13008KT 8000 RA ///CB 17/15 Q1008 TEMPO 2000 TSRA
11:00
V
18 °C 10 km+ 9.400 ft 100° 100° 7 kt METAR LFRK 150900Z AUTO 10007KT 9999 -RA FEW041/// SCT064/// BKN094/// ///TCU 18/15 Q1008 TEMPO 2000 TSRA BKN060CB
10:30
V
18 °C 10 km+ - 130° 130° 4 kt METAR LFRK 150830Z AUTO 13004KT 090V160 9999 -RA ///TCU 18/15 Q1008 TEMPO 2000 TSRA BKN060CB
10:00
I
18 °C 3,9 km 6.600 ft 220° 220° 4 kt METAR LFRK 150800Z AUTO 22004KT 190V250 9999 3900 RA FEW045/// OVC066/// ///TCU 18/15 Q1009 TEMPO 3000 RA BKN060CB
09:30
V
18 °C 10 km+ - 140° 140° 5 kt METAR LFRK 150730Z AUTO 14005KT 9999 //////TCU 18/13 Q1009 TEMPO 3000 RA BKN060CB
09:00
V
18 °C 10 km+ - 130° 130° 5 kt METAR LFRK 150700Z AUTO 13005KT CAVOK 18/13 Q1009 TEMPO 3000 RA BKN060CB
08:30
V
17 °C 10 km+ - 100° 100° 4 kt METAR LFRK 150630Z AUTO 10004KT CAVOK 17/13 Q1008 TEMPO 3000 RA BKN060CB
08:00
V
16 °C 10 km+ - Var Var 2 kt METAR LFRK 150600Z AUTO VRB02KT CAVOK 16/13 Q1009 BECMG BKN040 BKN060TCU
Segnala modifiche